Aviation Digital Data Service (ADDS)

Output produced by METARs form (2235 UTC 30 March 2017)
found at http://www.aviationweather.gov/adds/metars/
 
TAF KDAA 301700Z 3017/3123 13012KT 9999 FEW040 OVC060 QNH3002INS 
     BECMG 3105/3106 12009KT 9999 BKN010 OVC020 QNH2996INS 
     BECMG 3107/3108 10009KT 8000 -SHRA OVC007 QNH2990INS 
     BECMG 3110/3111 11006KT 6000 -SHRA OVC003 WS020/19040KT QNH2980INS 
     BECMG 3117/3118 15009KT 8000 -SHRA OVC005 QNH2964INS 
     BECMG 3119/3120 20009KT 8000 -SHRA OVC008 QNH2964INS 
     TEMPO 3121/3123 22010G15KT -TSRA OVC008CB TX13/3117Z TN06/3103Z
       
KDAB 301738Z 3018/3118 18009KT P6SM FEW050 SCT250 
     FM302000 14009KT P6SM SCT060 
     FM310000 16005KT P6SM SCT070 
     FM311500 21012G18KT P6SM FEW030 SCT080
       
KDAG 302053Z 3021/3118 27040G50KT 5SM BLDU FEW250 
     TEMPO 3021/3024 27045G55KT 3SM BLDU 
     FM310300 30020G30KT P6SM SCT090 
     FM310800 26014G22KT P6SM SCT090
       
KDAL 302052Z 3021/3118 30015KT P6SM FEW040 
     FM310000 25006KT P6SM FEW250 
     FM310300 13005KT P6SM FEW250 
     FM311700 17014KT P6SM SCT250
       
KDAN 301739Z 3018/3118 11006KT P6SM OVC035 
     FM310200 12005KT P6SM VCSH BKN030 
     FM310600 16009KT P6SM OVC010 
     FM310800 15009KT 2SM -SHRA OVC010 
     FM311600 19010KT 5SM -SHRA BKN008 
     FM311700 20011KT 5SM -SHRA BKN015
       
KDAY 302017Z 3020/3118 18010G18KT P6SM VCTS BKN050CB 
     FM302300 19010KT 5SM -SHRA BR VCTS OVC040CB 
     TEMPO 3023/3103 3SM TSRA BR OVC025CB 
     FM310300 18007KT 3SM -SHRA BR VCTS OVC025CB 
     FM310600 18007KT 3SM -SHRA BR OVC025 
     FM311000 19007KT 3SM -SHRA BR OVC015 
     FM311200 22007KT P6SM OVC015 
     FM311600 25011KT P6SM OVC015
       
KDBQ 301911Z 3019/3118 05013G20KT 2SM -DZ BR OVC005 
     TEMPO 3019/3021 1 1/2SM -DZ BR 
     FM310600 02015KT 3SM BR OVC004 
     FM311600 01015G20KT 6SM BR OVC010
       
KDCA 302100Z 3021/3118 13007KT P6SM OVC050 
     FM310700 12007KT 5SM -RA OVC025 
     FM310900 11007KT 4SM -RA BKN015 OVC025 
     FM311200 11009KT 3SM RA BKN010 OVC025 
     FM311400 12008KT 2SM RA BKN010 OVC025 
     FM311600 13008KT 2SM RA BKN010 OVC020
       
KDDC 301938Z 3020/3118 32010KT P6SM SCT019 
     FM310000 09009KT P6SM SKC 
     FM310900 08012KT 4SM BR OVC030 
     FM311200 08015KT 3SM BR OVC003 
     FM311500 09018G28KT P6SM OVC007
       
KDEC 302128Z 3021/3118 31012KT 4SM -RA BR SCT005 BKN080 
     FM302200 VRB05KT P6SM VCSH SCT005 BKN080 
     FM310500 28010KT 4SM -RA BR OVC003 
     FM311400 33014KT 4SM -RA BR OVC008
       
KDEN 302106Z 3021/3124 07006KT P6SM SCT120 BKN200 
     FM302200 07007KT P6SM SCT100 BKN150 
     FM310000 11010KT P6SM VCSH SCT070 BKN120 
     FM310400 15012KT P6SM SCT060 OVC100 
     FM311100 31006KT 3/4SM BR VCSH BKN007 OVC012 
     FM311900 07010KT 5SM BR VCSH BKN015 OVC025 
     FM312100 10015KT P6SM -RA BKN020 OVC030
       
KDET 302105Z 3021/3118 08015G23KT 4SM SHRA BR OVC008 
     TEMPO 3021/3024 2SM TSRA BR BKN004 OVC010CB 
     FM310300 05007KT 2SM -DZ BR OVC005 
     FM310800 06010KT 1/2SM RA FG OVC003 
     FM311000 03004KT 1 1/2SM RA BR OVC004 
     FM311500 36010KT 3SM -SHRA BR OVC010
       
KDFW 302052Z 3021/3124 27018KT P6SM FEW040 
     FM310000 25006KT P6SM FEW250 
     FM310300 13006KT P6SM FEW250 
     FM311700 19015KT P6SM SCT250
       
KDHN 301728Z 3018/3118 20010KT P6SM SCT030 
     TEMPO 3023/3101 TSRA BKN030CB 
     FM310100 19008KT 3SM TSRA BKN025CB 
     FM310900 24006KT P6SM BKN030
       
KDHT 301744Z 3018/3118 17010KT P6SM SCT250 
     FM310100 13010KT P6SM SCT250 
     FM310800 12010KT 6SM BR SCT010 OVC020 
     FM311700 13016G22KT P6SM OVC250
       
KDIK 301734Z 3018/3118 17010KT P6SM SCT080 OVC100 
     FM310200 15007KT P6SM OVC060 
     FM310400 14007KT P6SM VCSH OVC060 
     FM310800 14006KT P6SM BKN060
       
TAF AMD KDLF 302155Z 3021/3124 17009KT 9999 FEW040 QNH2972INS 
     BECMG 3100/3101 16006KT 9999 SKC QNH2972INS 
     BECMG 3117/3118 15015G25KT 9999 SKC QNH2974INS 
     BECMG 3123/3124 14012KT 9999 SKC QNH2958INS TX32/3021Z TN11/3111Z
       
KDLH 301720Z 3018/3118 08012G19KT P6SM SCT070 
     FM310000 07008KT P6SM SCT010 BKN050 
     FM310300 06007KT P6SM BKN007 
     FM311200 06008KT P6SM SCT012
       
KDLS 301732Z 3018/3118 31024G34KT P6SM SCT070 
     FM310200 30014G21KT P6SM SKC 
     FM310500 30011KT P6SM SCT025 SCT250 
     FM311400 30007KT P6SM FEW030
       
TAF KDMA 302208Z 3022/0104 24012G20KT 9999 SKC QNH2973INS 
     BECMG 3100/3101 23020G30KT 9999 SKC 520009 QNH2973INS 
     BECMG 3102/3103 24015G25KT 9999 FEW200 QNH2970INS 
     BECMG 3108/3109 27012KT 9999 SCT200 QNH2969INS 
     BECMG 3120/3121 27012G20KT 9999 FEW200 QNH2977INS 
     BECMG 0102/0103 24009KT 9999 FEW120 QNH2983INS TX28/3022Z TN10/3114Z
       
KDMN 301721Z 3018/3118 26010KT P6SM SKC 
     FM302000 25018G28KT P6SM SKC 
     FM310300 25012KT P6SM FEW250 
     FM311500 24021G31KT P6SM SCT050 BKN250
       
KDNL 302217Z 3022/3118 16009KT P6SM VCSH SCT040 BKN120 
     FM310600 17006KT 4SM -SHRA BR SCT008 BKN020 
     FM311500 24012G22KT P6SM BKN050
       
TAF KDOV 301600Z 3016/3122 10009KT 9999 SCT060 BKN120 QNH3001INS 
     BECMG 3109/3110 12012KT 8000 -RA BKN010 OVC020 QNH2996INS 
     BECMG 3112/3113 13012G20KT 4800 -RA OVC006 QNH2977INS 
     BECMG 3117/3118 15015G25KT 3200 SHRA OVC010 540103 QNH2955INS 
     BECMG 3121/3122 17012G20KT 6000 -SHRA BKN015 BKN040 540152 QNH2953INS TX10/3116Z TN05/3101Z
       
KDPA 302107Z 3021/3118 06012KT 6SM BR OVC005 
     FM302300 05012KT 5SM -SHRA BR OVC005 
     FM310000 04012KT 5SM -SHRA BR OVC004 
     FM310300 03013G17KT 3SM -RADZ BR OVC004 
     FM311100 02012G20KT 6SM BR VCSH OVC006
       
KDRO 301930Z 3020/3118 21008G18KT P6SM SCT080 BKN150 
     FM310300 17006KT P6SM VCSH SCT040 BKN080 
     FM310600 08007KT P6SM VCSH SCT040 BKN080 
     FM311500 20008KT P6SM -RA SCT020 BKN040
       
KDRT 301720Z 3018/3118 13007KT P6SM FEW250 
     FM311700 13015KT P6SM SKC
       
KDSM 301742Z 3018/3118 06011KT 2SM -DZ BR VCSH OVC004 
     FM302000 02010KT P6SM OVC007 
     FM311100 36008KT P6SM OVC010 
     FM311400 01009KT P6SM BKN007 
     FM311600 01009KT P6SM BKN010
       
KDTW 302051Z 3021/3124 08012G18KT 3SM SHRA BR OVC010 
     TEMPO 3021/3024 2SM TSRA BR BKN004 OVC008CB 
     FM310300 05006KT 2SM -DZ BR OVC005 
     FM310800 06010KT 1/2SM RA FG OVC003 
     FM311000 03004KT 1 1/2SM RA BR OVC004 
     FM311500 36010KT 3SM -SHRA BR OVC010
       
KDUG 301738Z 3018/3118 18010KT P6SM SKC 
     FM302000 23013G23KT P6SM SKC 
     FM302200 24020G30KT P6SM SKC 
     FM310400 20014G23KT P6SM SCT150 
     FM311500 23023G32KT P6SM BKN150
       
KDUJ 302058Z 3021/3118 11010G22KT P6SM OVC040 
     FM310200 10012G18KT P6SM RA OVC035 WS020/20045KT 
     FM310600 13009KT 3SM -RA OVC025 WS020/20045KT 
     FM311300 14012G18KT 3SM -RA OVC008
       
KDVL 301739Z 3018/3118 19013KT P6SM BKN070 
     FM302200 16009KT P6SM BKN130 
     FM310900 00000KT P6SM BKN120 
     FM311600 06006KT P6SM BKN100
       
TAF KDYS 301600Z 3016/3122 27012G18KT 9999 FEW040 QNH2977INS 
     BECMG 3023/3024 21006KT 9999 SKC QNH2970INS 
     BECMG 3114/3115 20015G20KT 9999 SKC 510052 QNH2963INS TX29/3020Z TN11/3111Z